Time,TemperatureF,DewpointF,PressureIn,WindDirection,WindDirectionDegrees,WindSpeedMPH,WindSpeedGustMPH,Humidity,HourlyPrecipIn,Conditions,Clouds,dailyrainin,SoftwareType,DateUTC
2013-03-02 00:00:00,48.6,46.1,29.17,East,90,0.0,0.0,91,-99.99,,---,-99.99,VWS V14.00,2013-03-02 08:00:00,
2013-03-02 00:05:00,48.4,45.9,29.17,East,90,0.0,0.0,91,-99.99,,---,-99.99,VWS V14.00,2013-03-02 08:05:00,
2013-03-02 00:10:00,48.4,45.9,29.17,East,90,0.0,0.0,91,-99.99,,---,-99.99,VWS V14.00,2013-03-02 08:10:00,
2013-03-02 00:15:00,48.4,46.2,29.17,East,90,0.0,0.0,92,-99.99,,---,-99.99,VWS V14.00,2013-03-02 08:15:00,
2013-03-02 00:20:00,48.4,46.2,29.17,East,90,0.0,0.0,92,-99.99,,---,-99.99,VWS V14.00,2013-03-02 08:20:00,
2013-03-02 00:25:00,48.4,45.9,29.17,East,90,0.0,0.0,91,-99.99,,---,-99.99,VWS V14.00,2013-03-02 08:25:00,
2013-03-02 00:30:00,48.2,45.7,29.17,East,90,0.0,0.0,91,-99.99,,---,-99.99,VWS V14.00,2013-03-02 08:30:00,
2013-03-02 00:35:00,48.2,45.7,29.17,East,90,0.0,0.0,91,-99.99,,---,-99.99,VWS V14.00,2013-03-02 08:35:00,
2013-03-02 00:40:00,48.0,45.5,29.17,East,90,0.0,0.0,91,-99.99,,---,-99.99,VWS V14.00,2013-03-02 08:40:00,
2013-03-02 00:45:00,48.0,45.2,29.17,East,90,0.0,0.0,90,-99.99,,---,-99.99,VWS V14.00,2013-03-02 08:45:00,
2013-03-02 00:50:00,47.8,45.0,29.17,East,90,0.0,0.0,90,-99.99,,---,-99.99,VWS V14.00,2013-03-02 08:50:00,
2013-03-02 00:55:00,47.7,44.9,29.17,East,90,0.0,0.0,90,-99.99,,---,-99.99,VWS V14.00,2013-03-02 08:55:00,
2013-03-02 01:00:00,47.5,44.4,29.17,East,90,0.0,0.0,89,-99.99,,---,-99.99,VWS V14.00,2013-03-02 09:00:00,
2013-03-02 01:05:00,47.3,44.2,29.17,East,90,0.0,0.0,89,-99.99,,---,-99.99,VWS V14.00,2013-03-02 09:05:00,
2013-03-02 01:10:00,47.1,44.0,29.17,East,90,0.0,0.0,89,-99.99,,---,-99.99,VWS V14.00,2013-03-02 09:10:00,
2013-03-02 01:15:00,47.1,44.0,29.17,East,90,0.0,0.0,89,-99.99,,---,-99.99,VWS V14.00,2013-03-02 09:15:00,
2013-03-02 01:20:00,47.1,44.0,29.17,East,90,0.0,0.0,89,-99.99,,---,-99.99,VWS V14.00,2013-03-02 09:20:00,
2013-03-02 01:25:00,47.1,44.0,29.17,East,90,0.0,0.0,89,-99.99,,---,-99.99,VWS V14.00,2013-03-02 09:25:00,
2013-03-02 01:30:00,46.9,43.9,29.17,East,90,0.0,0.0,89,-99.99,,---,-99.99,VWS V14.00,2013-03-02 09:30:00,
2013-03-02 01:35:00,46.9,43.9,29.17,East,90,0.9,1.3,89,-99.99,,---,-99.99,VWS V14.00,2013-03-02 09:35:00,
2013-03-02 01:40:00,46.9,43.9,29.17,East,90,0.0,0.0,89,-99.99,,---,-99.99,VWS V14.00,2013-03-02 09:40:00,
2013-03-02 01:45:00,46.9,43.9,29.17,East,90,0.0,0.0,89,-99.99,,---,-99.99,VWS V14.00,2013-03-02 09:45:00,
2013-03-02 01:50:00,46.9,43.9,29.17,East,90,0.0,0.0,89,-99.99,,---,-99.99,VWS V14.00,2013-03-02 09:50:00,
2013-03-02 01:55:00,46.9,43.6,29.17,East,90,1.1,1.1,88,-99.99,,---,-99.99,VWS V14.00,2013-03-02 09:55:00,
2013-03-02 02:00:00,46.8,43.4,29.17,East,90,0.0,0.0,88,-99.99,,---,-99.99,VWS V14.00,2013-03-02 10:00:00,
2013-03-02 02:05:00,46.8,43.4,29.17,East,90,0.0,0.0,88,-99.99,,---,-99.99,VWS V14.00,2013-03-02 10:05:00,
2013-03-02 02:10:00,46.8,43.4,29.17,East,90,1.3,1.3,88,-99.99,,---,-99.99,VWS V14.00,2013-03-02 10:10:00,
2013-03-02 02:15:00,46.8,43.1,29.17,East,90,0.0,0.0,87,-99.99,,---,-99.99,VWS V14.00,2013-03-02 10:15:00,
2013-03-02 02:20:00,46.6,42.9,29.17,East,90,0.0,1.1,87,-99.99,,---,-99.99,VWS V14.00,2013-03-02 10:20:00,
2013-03-02 02:25:00,46.6,42.9,29.17,East,90,0.0,0.0,87,-99.99,,---,-99.99,VWS V14.00,2013-03-02 10:25:00,
2013-03-02 02:30:00,46.4,42.8,29.14,East,90,0.0,0.0,87,-99.99,,---,-99.99,VWS V14.00,2013-03-02 10:30:00,
2013-03-02 02:35:00,46.4,42.8,29.14,East,90,0.0,0.0,87,-99.99,,---,-99.99,VWS V14.00,2013-03-02 10:35:00,
2013-03-02 02:40:00,46.2,42.6,29.14,East,90,0.0,0.0,87,-99.99,,---,-99.99,VWS V14.00,2013-03-02 10:40:00,
2013-03-02 02:45:00,46.0,42.4,29.14,East,90,0.0,0.0,87,-99.99,,---,-99.99,VWS V14.00,2013-03-02 10:45:00,
2013-03-02 02:50:00,45.9,42.2,29.14,East,90,0.0,0.0,87,-99.99,,---,-99.99,VWS V14.00,2013-03-02 10:50:00,
2013-03-02 02:55:00,45.7,42.0,29.14,East,90,0.0,0.0,87,-99.99,,---,-99.99,VWS V14.00,2013-03-02 10:55:00,
2013-03-02 03:00:00,45.5,41.9,29.14,East,90,0.0,0.0,87,-99.99,,---,-99.99,VWS V14.00,2013-03-02 11:00:00,
2013-03-02 03:05:00,45.3,41.7,29.14,East,90,0.0,0.0,87,-99.99,,---,-99.99,VWS V14.00,2013-03-02 11:05:00,
2013-03-02 03:10:00,45.3,41.7,29.14,East,90,0.0,0.0,87,-99.99,,---,-99.99,VWS V14.00,2013-03-02 11:10:00,
2013-03-02 03:15:00,45.1,41.8,29.12,East,90,0.0,0.0,88,-99.99,,---,-99.99,VWS V14.00,2013-03-02 11:15:00,
2013-03-02 03:20:00,45.0,41.6,29.12,East,90,0.0,0.0,88,-99.99,,---,-99.99,VWS V14.00,2013-03-02 11:20:00,
2013-03-02 03:25:00,44.8,41.7,29.12,East,90,0.0,0.0,89,-99.99,,---,-99.99,VWS V14.00,2013-03-02 11:25:00,
2013-03-02 03:30:00,44.6,41.6,29.12,East,90,0.0,0.0,89,-99.99,,---,-99.99,VWS V14.00,2013-03-02 11:30:00,
2013-03-02 03:35:00,44.6,41.6,29.12,East,90,0.0,0.0,89,-99.99,,---,-99.99,VWS V14.00,2013-03-02 11:35:00,
2013-03-02 03:40:00,44.6,41.6,29.12,East,90,0.0,0.0,89,-99.99,,---,-99.99,VWS V14.00,2013-03-02 11:40:00,
2013-03-02 03:45:00,44.6,41.6,29.12,East,90,0.0,0.0,89,-99.99,,---,-99.99,VWS V14.00,2013-03-02 11:45:00,
2013-03-02 03:50:00,44.6,41.8,29.12,East,90,0.0,0.0,90,-99.99,,---,-99.99,VWS V14.00,2013-03-02 11:50:00,
2013-03-02 03:55:00,44.4,41.7,29.12,East,90,0.0,0.0,90,-99.99,,---,-99.99,VWS V14.00,2013-03-02 11:55:00,
2013-03-02 04:00:00,44.4,42.0,29.12,East,90,0.0,0.0,91,-99.99,,---,-99.99,VWS V14.00,2013-03-02 12:00:00,
2013-03-02 04:05:00,44.4,42.0,29.12,East,90,0.0,0.0,91,-99.99,,---,-99.99,VWS V14.00,2013-03-02 12:05:00,
2013-03-02 04:10:00,44.2,41.8,29.12,East,90,0.0,0.0,91,-99.99,,---,-99.99,VWS V14.00,2013-03-02 12:10:00,
2013-03-02 04:15:00,44.4,42.0,29.12,East,90,0.0,0.0,91,-99.99,,---,-99.99,VWS V14.00,2013-03-02 12:15:00,
2013-03-02 04:20:00,44.2,41.8,29.12,East,90,1.3,1.3,91,-99.99,,---,-99.99,VWS V14.00,2013-03-02 12:20:00,
2013-03-02 04:25:00,44.2,41.8,29.12,East,90,0.0,0.0,91,-99.99,,---,-99.99,VWS V14.00,2013-03-02 12:25:00,
2013-03-02 04:30:00,44.2,41.8,29.12,East,90,0.0,0.0,91,-99.99,,---,-99.99,VWS V14.00,2013-03-02 12:30:00,
2013-03-02 04:35:00,44.1,41.6,29.12,East,90,0.0,0.0,91,-99.99,,---,-99.99,VWS V14.00,2013-03-02 12:35:00,
2013-03-02 04:40:00,44.1,41.6,29.12,East,90,0.0,0.0,91,-99.99,,---,-99.99,VWS V14.00,2013-03-02 12:40:00,
2013-03-02 04:45:00,44.1,41.6,29.12,East,90,0.0,0.0,91,-99.99,,---,-99.99,VWS V14.00,2013-03-02 12:45:00,
2013-03-02 04:50:00,44.1,41.6,29.12,East,90,0.0,0.0,91,-99.99,,---,-99.99,VWS V14.00,2013-03-02 12:50:00,
2013-03-02 04:55:00,44.1,41.9,29.12,East,90,0.0,0.0,92,-99.99,,---,-99.99,VWS V14.00,2013-03-02 12:55:00,
2013-03-02 05:00:00,44.1,41.9,29.12,East,90,0.0,0.0,92,-99.99,,---,-99.99,VWS V14.00,2013-03-02 13:00:00,
2013-03-02 05:05:00,44.1,41.9,29.12,East,90,0.0,0.0,92,-99.99,,---,-99.99,VWS V14.00,2013-03-02 13:05:00,
2013-03-02 05:10:00,44.1,41.9,29.12,East,90,0.0,0.0,92,-99.99,,---,-99.99,VWS V14.00,2013-03-02 13:10:00,
2013-03-02 05:15:00,44.2,42.1,29.12,East,90,0.0,1.6,92,-99.99,,---,-99.99,VWS V14.00,2013-03-02 13:15:00,
2013-03-02 05:20:00,44.2,42.1,29.12,East,90,0.0,0.0,92,-99.99,,---,-99.99,VWS V14.00,2013-03-02 13:20:00,
2013-03-02 05:25:00,44.2,42.1,29.12,East,90,0.0,0.0,92,-99.99,,---,-99.99,VWS V14.00,2013-03-02 13:25:00,
2013-03-02 05:30:00,44.2,42.1,29.09,East,90,0.0,0.0,92,-99.99,,---,-99.99,VWS V14.00,2013-03-02 13:30:00,
2013-03-02 05:35:00,44.2,42.1,29.09,East,90,0.0,0.0,92,-99.99,,---,-99.99,VWS V14.00,2013-03-02 13:35:00,
2013-03-02 05:40:00,44.2,42.1,29.09,East,90,0.0,0.0,92,-99.99,,---,-99.99,VWS V14.00,2013-03-02 13:40:00,
2013-03-02 05:45:00,44.2,42.1,29.09,East,90,0.0,0.0,92,-99.99,,---,-99.99,VWS V14.00,2013-03-02 13:45:00,
2013-03-02 05:50:00,44.2,42.1,29.09,East,90,0.0,0.0,92,-99.99,,---,-99.99,VWS V14.00,2013-03-02 13:50:00,
2013-03-02 05:55:00,44.2,42.1,29.09,East,90,0.0,0.0,92,-99.99,,---,-99.99,VWS V14.00,2013-03-02 13:55:00,
2013-03-02 06:00:00,44.2,42.1,29.09,East,90,0.0,0.0,92,-99.99,,---,-99.99,VWS V14.00,2013-03-02 14:00:00,
2013-03-02 06:05:00,44.2,42.1,29.09,East,90,0.0,0.0,92,-99.99,,---,-99.99,VWS V14.00,2013-03-02 14:05:00,
2013-03-02 06:10:00,44.1,41.9,29.09,East,90,0.0,0.0,92,-99.99,,---,-99.99,VWS V14.00,2013-03-02 14:10:00,
2013-03-02 06:15:00,44.1,41.9,29.09,East,90,0.0,0.0,92,-99.99,,---,-99.99,VWS V14.00,2013-03-02 14:15:00,
2013-03-02 06:20:00,43.7,41.2,29.09,East,90,0.0,0.0,91,-99.99,,---,-99.99,VWS V14.00,2013-03-02 14:20:00,
2013-03-02 06:25:00,43.7,41.5,29.09,East,90,0.0,0.0,92,-99.99,,---,-99.99,VWS V14.00,2013-03-02 14:25:00,
2013-03-02 06:30:00,43.7,41.5,29.09,East,90,0.0,0.0,92,-99.99,,---,-99.99,VWS V14.00,2013-03-02 14:30:00,
2013-03-02 06:35:00,43.7,41.5,29.09,East,90,0.0,0.0,92,-99.99,,---,-99.99,VWS V14.00,2013-03-02 14:35:00,
2013-03-02 06:40:00,43.7,41.5,29.09,East,90,0.9,0.9,92,-99.99,,---,-99.99,VWS V14.00,2013-03-02 14:40:00,
2013-03-02 06:45:00,43.9,41.7,29.09,East,90,0.0,0.0,92,-99.99,,---,-99.99,VWS V14.00,2013-03-02 14:45:00,
2013-03-02 06:50:00,43.7,41.5,29.09,East,90,0.0,0.0,92,-99.99,,---,-99.99,VWS V14.00,2013-03-02 14:50:00,
2013-03-02 06:55:00,43.7,41.5,29.09,East,90,0.0,0.0,92,-99.99,,---,-99.99,VWS V14.00,2013-03-02 14:55:00,
2013-03-02 07:00:00,43.7,41.5,29.12,East,90,0.0,0.9,92,-99.99,,---,-99.99,VWS V14.00,2013-03-02 15:00:00,
2013-03-02 07:05:00,43.7,41.5,29.12,East,90,0.0,0.0,92,-99.99,,---,-99.99,VWS V14.00,2013-03-02 15:05:00,
2013-03-02 07:10:00,43.7,41.5,29.12,East,90,0.0,0.0,92,-99.99,,---,-99.99,VWS V14.00,2013-03-02 15:10:00,
2013-03-02 07:15:00,43.7,41.8,29.12,East,90,0.0,0.0,93,-99.99,,---,-99.99,VWS V14.00,2013-03-02 15:15:00,
2013-03-02 07:20:00,43.7,41.8,29.12,East,90,0.0,0.0,93,-99.99,,---,-99.99,VWS V14.00,2013-03-02 15:20:00,
2013-03-02 07:25:00,43.7,41.8,29.12,East,90,0.0,0.0,93,-99.99,,---,-99.99,VWS V14.00,2013-03-02 15:25:00,
2013-03-02 07:30:00,43.7,41.8,29.09,East,90,0.0,0.0,93,-99.99,,---,-99.99,VWS V14.00,2013-03-02 15:30:00,
2013-03-02 07:35:00,43.7,41.8,29.09,East,90,0.0,0.0,93,-99.99,,---,-99.99,VWS V14.00,2013-03-02 15:35:00,
2013-03-02 07:40:00,43.9,42.0,29.09,East,90,0.0,0.0,93,-99.99,,---,-99.99,VWS V14.00,2013-03-02 15:40:00,
2013-03-02 07:45:00,44.1,42.2,29.09,East,90,0.0,0.0,93,-99.99,,---,-99.99,VWS V14.00,2013-03-02 15:45:00,
2013-03-02 07:50:00,44.2,42.6,29.09,East,90,0.0,0.0,94,-99.99,,---,-99.99,VWS V14.00,2013-03-02 15:50:00,
2013-03-02 07:55:00,44.2,42.6,29.09,East,90,0.0,0.0,94,-99.99,,---,-99.99,VWS V14.00,2013-03-02 15:55:00,
2013-03-02 08:00:00,44.6,42.7,29.09,East,90,0.0,0.0,93,-99.99,,---,-99.99,VWS V14.00,2013-03-02 16:00:00,
2013-03-02 08:05:00,44.8,43.2,29.09,East,90,0.0,0.0,94,-99.99,,---,-99.99,VWS V14.00,2013-03-02 16:05:00,
2013-03-02 08:10:00,45.0,43.3,29.09,East,90,0.0,0.0,94,-99.99,,---,-99.99,VWS V14.00,2013-03-02 16:10:00,
2013-03-02 08:15:00,45.3,43.7,29.09,East,90,0.0,0.0,94,-99.99,,---,-99.99,VWS V14.00,2013-03-02 16:15:00,
2013-03-02 08:20:00,45.5,43.9,29.09,East,90,0.0,0.0,94,-99.99,,---,-99.99,VWS V14.00,2013-03-02 16:20:00,
2013-03-02 08:25:00,45.7,44.1,29.09,East,90,0.0,0.0,94,-99.99,,---,-99.99,VWS V14.00,2013-03-02 16:25:00,
2013-03-02 08:30:00,46.0,44.4,29.09,East,90,0.0,0.0,94,-99.99,,---,-99.99,VWS V14.00,2013-03-02 16:30:00,
2013-03-02 08:35:00,46.2,44.6,29.09,East,90,0.0,0.0,94,-99.99,,---,-99.99,VWS V14.00,2013-03-02 16:35:00,
2013-03-02 08:40:00,46.4,44.5,29.09,East,90,0.0,0.0,93,-99.99,,---,-99.99,VWS V14.00,2013-03-02 16:40:00,
2013-03-02 08:45:00,46.6,44.7,29.09,East,90,0.0,0.0,93,-99.99,,---,-99.99,VWS V14.00,2013-03-02 16:45:00,
2013-03-02 08:50:00,46.8,44.8,29.09,East,90,0.0,0.0,93,-99.99,,---,-99.99,VWS V14.00,2013-03-02 16:50:00,
2013-03-02 08:55:00,47.1,45.2,29.09,East,90,0.0,0.0,93,-99.99,,---,-99.99,VWS V14.00,2013-03-02 16:55:00,
2013-03-02 09:00:00,47.3,45.1,29.09,East,90,0.0,0.0,92,-99.99,,---,-99.99,VWS V14.00,2013-03-02 17:00:00,
2013-03-02 09:05:00,47.3,45.1,29.09,East,90,0.0,0.0,92,-99.99,,---,-99.99,VWS V14.00,2013-03-02 17:05:00,
2013-03-02 09:10:00,47.5,45.3,29.09,East,90,0.0,0.0,92,-99.99,,---,-99.99,VWS V14.00,2013-03-02 17:10:00,
2013-03-02 09:15:00,47.5,45.0,29.09,East,90,0.0,0.0,91,-99.99,,---,-99.99,VWS V14.00,2013-03-02 17:15:00,
2013-03-02 09:20:00,47.7,45.2,29.09,East,90,0.0,0.0,91,-99.99,,---,-99.99,VWS V14.00,2013-03-02 17:20:00,
2013-03-02 09:25:00,47.8,45.3,29.09,East,90,0.0,0.0,91,-99.99,,---,-99.99,VWS V14.00,2013-03-02 17:25:00,
2013-03-02 09:30:00,48.0,45.5,29.09,East,90,0.0,0.0,91,-99.99,,---,-99.99,VWS V14.00,2013-03-02 17:30:00,
2013-03-02 09:35:00,48.0,45.5,29.09,East,90,0.0,0.0,91,-99.99,,---,-99.99,VWS V14.00,2013-03-02 17:35:00,
2013-03-02 09:40:00,48.2,45.1,29.09,East,90,0.0,0.0,89,-99.99,,---,-99.99,VWS V14.00,2013-03-02 17:40:00,
2013-03-02 09:45:00,48.2,45.1,29.12,East,90,0.0,0.0,89,-99.99,,---,-99.99,VWS V14.00,2013-03-02 17:45:00,
2013-03-02 09:50:00,48.2,44.8,29.12,East,90,0.0,0.0,88,-99.99,,---,-99.99,VWS V14.00,2013-03-02 17:50:00,
2013-03-02 09:55:00,48.4,44.7,29.12,East,90,0.0,0.0,87,-99.99,,---,-99.99,VWS V14.00,2013-03-02 17:55:00,
2013-03-02 10:00:00,48.6,44.9,29.12,East,90,0.0,0.0,87,-99.99,,---,-99.99,VWS V14.00,2013-03-02 18:00:00,
2013-03-02 10:05:00,48.7,45.0,29.12,East,90,0.0,0.0,87,-99.99,,---,-99.99,VWS V14.00,2013-03-02 18:05:00,
2013-03-02 10:10:00,48.9,45.2,29.12,East,90,0.0,0.0,87,-99.99,,---,-99.99,VWS V14.00,2013-03-02 18:10:00,
2013-03-02 10:15:00,49.1,45.4,29.09,East,90,0.0,0.0,87,-99.99,,---,-99.99,VWS V14.00,2013-03-02 18:15:00,
2013-03-02 10:20:00,49.5,45.8,29.09,East,90,0.0,0.0,87,-99.99,,---,-99.99,VWS V14.00,2013-03-02 18:20:00,
2013-03-02 10:25:00,49.6,45.6,29.09,East,90,0.0,0.0,86,-99.99,,---,-99.99,VWS V14.00,2013-03-02 18:25:00,
2013-03-02 10:30:00,49.8,45.5,29.09,East,90,0.0,0.0,85,-99.99,,---,-99.99,VWS V14.00,2013-03-02 18:30:00,
2013-03-02 10:35:00,50.0,45.7,29.09,East,90,0.0,0.0,85,-99.99,,---,-99.99,VWS V14.00,2013-03-02 18:35:00,
2013-03-02 10:40:00,50.0,45.4,29.09,East,90,0.0,0.0,84,-99.99,,---,-99.99,VWS V14.00,2013-03-02 18:40:00,
2013-03-02 10:45:00,49.8,45.2,29.09,East,90,0.0,0.0,84,-99.99,,---,-99.99,VWS V14.00,2013-03-02 18:45:00,
2013-03-02 10:50:00,49.8,45.2,29.09,East,90,0.0,0.0,84,-99.99,,---,-99.99,VWS V14.00,2013-03-02 18:50:00,
2013-03-02 10:55:00,50.0,45.4,29.09,East,90,0.0,0.0,84,-99.99,,---,-99.99,VWS V14.00,2013-03-02 18:55:00,
2013-03-02 11:00:00,50.2,45.2,29.09,East,90,0.0,0.0,83,-99.99,,---,-99.99,VWS V14.00,2013-03-02 19:00:00,
2013-03-02 11:05:00,50.2,45.2,29.09,East,90,0.0,0.0,83,-99.99,,---,-99.99,VWS V14.00,2013-03-02 19:05:00,
2013-03-02 11:10:00,50.2,44.9,29.09,East,90,0.0,0.0,82,-99.99,,---,-99.99,VWS V14.00,2013-03-02 19:10:00,
2013-03-02 11:15:00,50.2,44.9,29.09,East,90,0.0,0.0,82,-99.99,,---,-99.99,VWS V14.00,2013-03-02 19:15:00,
2013-03-02 11:20:00,50.4,44.8,29.09,East,90,0.0,0.0,81,-99.99,,---,-99.99,VWS V14.00,2013-03-02 19:20:00,
2013-03-02 11:25:00,50.5,45.3,29.09,East,90,0.0,0.0,82,-99.99,,---,-99.99,VWS V14.00,2013-03-02 19:25:00,
2013-03-02 11:30:00,50.5,44.9,29.09,East,90,0.0,0.0,81,-99.99,,---,-99.99,VWS V14.00,2013-03-02 19:30:00,
2013-03-02 11:35:00,50.9,45.3,29.09,East,90,0.0,0.0,81,-99.99,,---,-99.99,VWS V14.00,2013-03-02 19:35:00,
2013-03-02 11:40:00,51.1,45.5,29.09,East,90,0.0,0.0,81,-99.99,,---,-99.99,VWS V14.00,2013-03-02 19:40:00,
2013-03-02 11:45:00,51.3,45.3,29.09,East,90,0.0,0.0,80,-99.99,,---,-99.99,VWS V14.00,2013-03-02 19:45:00,
2013-03-02 11:50:00,51.3,45.3,29.09,East,90,0.0,0.0,80,-99.99,,---,-99.99,VWS V14.00,2013-03-02 19:50:00,
2013-03-02 11:55:00,51.4,45.5,29.09,East,90,0.0,0.0,80,-99.99,,---,-99.99,VWS V14.00,2013-03-02 19:55:00,
2013-03-02 12:00:00,51.4,45.5,29.09,East,90,0.0,0.0,80,-99.99,,---,-99.99,VWS V14.00,2013-03-02 20:00:00,
2013-03-02 12:05:00,51.6,45.3,29.09,East,90,0.0,0.0,79,-99.99,,---,-99.99,VWS V14.00,2013-03-02 20:05:00,
2013-03-02 12:10:00,51.8,45.5,29.09,East,90,0.0,0.0,79,-99.99,,---,-99.99,VWS V14.00,2013-03-02 20:10:00,
2013-03-02 12:15:00,51.8,45.2,29.09,East,90,0.0,0.0,78,-99.99,,---,-99.99,VWS V14.00,2013-03-02 20:15:00,
2013-03-02 12:20:00,52.0,45.3,29.09,East,90,0.0,0.0,78,-99.99,,---,-99.99,VWS V14.00,2013-03-02 20:20:00,
2013-03-02 12:25:00,52.0,45.0,29.09,East,90,0.0,0.0,77,-99.99,,---,-99.99,VWS V14.00,2013-03-02 20:25:00,
2013-03-02 12:30:00,52.2,45.2,29.06,East,90,0.0,0.0,77,-99.99,,---,-99.99,VWS V14.00,2013-03-02 20:30:00,
2013-03-02 12:35:00,52.3,45.3,29.06,East,90,0.0,0.0,77,-99.99,,---,-99.99,VWS V14.00,2013-03-02 20:35:00,
2013-03-02 12:40:00,52.3,44.7,29.06,East,90,0.0,0.0,75,-99.99,,---,-99.99,VWS V14.00,2013-03-02 20:40:00,
2013-03-02 12:45:00,52.3,44.7,29.06,East,90,0.0,0.0,75,-99.99,,---,-99.99,VWS V14.00,2013-03-02 20:45:00,
2013-03-02 12:50:00,52.2,44.5,29.06,East,90,0.0,0.0,75,-99.99,,---,-99.99,VWS V14.00,2013-03-02 20:50:00,
2013-03-02 12:55:00,52.0,44.0,29.06,East,90,0.0,0.0,74,-99.99,,---,-99.99,VWS V14.00,2013-03-02 20:55:00,
2013-03-02 13:00:00,51.8,43.4,29.06,East,90,1.1,1.1,73,-99.99,,---,-99.99,VWS V14.00,2013-03-02 21:00:00,
2013-03-02 13:05:00,51.6,43.6,29.06,East,90,0.0,0.0,74,-99.99,,---,-99.99,VWS V14.00,2013-03-02 21:05:00,
2013-03-02 13:10:00,51.6,43.6,29.06,East,90,0.0,0.0,74,-99.99,,---,-99.99,VWS V14.00,2013-03-02 21:10:00,
2013-03-02 13:15:00,51.4,43.8,29.06,East,90,0.0,0.0,75,-99.99,,---,-99.99,VWS V14.00,2013-03-02 21:15:00,
2013-03-02 13:20:00,51.3,43.6,29.06,East,90,0.0,0.0,75,-99.99,,---,-99.99,VWS V14.00,2013-03-02 21:20:00,
2013-03-02 13:25:00,51.1,43.8,29.06,East,90,0.0,1.1,76,-99.99,,---,-99.99,VWS V14.00,2013-03-02 21:25:00,
2013-03-02 13:30:00,51.1,43.8,29.06,East,90,0.0,0.0,76,-99.99,,---,-99.99,VWS V14.00,2013-03-02 21:30:00,
2013-03-02 13:35:00,50.9,43.6,29.06,East,90,0.0,0.0,76,-99.99,,---,-99.99,VWS V14.00,2013-03-02 21:35:00,
2013-03-02 13:40:00,50.9,43.3,29.06,WSW,248,0.0,1.1,75,-99.99,,---,-99.99,VWS V14.00,2013-03-02 21:40:00,
2013-03-02 13:45:00,50.7,43.1,29.06,SW,225,0.0,0.0,75,-99.99,,---,-99.99,VWS V14.00,2013-03-02 21:45:00,
2013-03-02 13:50:00,50.5,43.3,29.06,SW,225,0.0,0.9,76,-99.99,,---,-99.99,VWS V14.00,2013-03-02 21:50:00,
2013-03-02 13:55:00,50.5,43.3,29.06,SW,225,0.0,0.0,76,-99.99,,---,-99.99,VWS V14.00,2013-03-02 21:55:00,
2013-03-02 13:59:00,50.4,43.1,29.06,SW,225,0.0,0.0,76,-99.99,,---,-99.99,VWS V14.00,2013-03-02 21:59:00,
2013-03-02 14:04:00,50.4,43.1,29.06,SW,225,0.0,1.6,76,-99.99,,---,-99.99,VWS V14.00,2013-03-02 22:04:00,
2013-03-02 14:09:00,50.2,42.6,29.06,SSW,202,0.0,1.6,75,-99.99,,---,-99.99,VWS V14.00,2013-03-02 22:09:00,
2013-03-02 14:14:00,50.2,42.9,29.06,SSW,202,0.0,0.0,76,-99.99,,---,-99.99,VWS V14.00,2013-03-02 22:14:00,
2013-03-02 14:19:00,50.2,42.9,29.06,West,270,0.0,0.9,76,-99.99,,---,-99.99,VWS V14.00,2013-03-02 22:19:00,
2013-03-02 14:24:00,50.2,42.9,29.06,SW,225,0.0,0.0,76,-99.99,,---,-99.99,VWS V14.00,2013-03-02 22:24:00,
2013-03-02 14:29:00,50.0,43.1,29.06,SW,225,0.0,0.0,77,-99.99,,---,-99.99,VWS V14.00,2013-03-02 22:29:00,
2013-03-02 14:34:00,50.0,43.1,29.06,SSE,158,0.0,0.0,77,-99.99,,---,-99.99,VWS V14.00,2013-03-02 22:34:00,
2013-03-02 14:39:00,49.8,43.2,29.06,SSE,158,1.1,1.1,78,-99.99,,---,-99.99,VWS V14.00,2013-03-02 22:39:00,
2013-03-02 14:44:00,49.8,43.2,29.06,SSE,158,0.0,0.0,78,-99.99,,---,-99.99,VWS V14.00,2013-03-02 22:44:00,
2013-03-02 14:49:00,49.8,43.2,29.06,SSE,158,0.0,0.0,78,-99.99,,---,-99.99,VWS V14.00,2013-03-02 22:49:00,
2013-03-02 14:54:00,49.8,43.2,29.06,SSE,158,0.0,0.0,78,-99.99,,---,-99.99,VWS V14.00,2013-03-02 22:54:00,
2013-03-02 14:59:00,49.8,43.2,29.06,SSE,158,0.0,0.0,78,-99.99,,---,-99.99,VWS V14.00,2013-03-02 22:59:00,
2013-03-02 15:04:00,49.8,43.2,29.06,SSE,158,0.0,0.0,78,-99.99,,---,-99.99,VWS V14.00,2013-03-02 23:04:00,
2013-03-02 15:09:00,49.6,43.4,29.06,SSE,158,0.0,0.0,79,-99.99,,---,-99.99,VWS V14.00,2013-03-02 23:09:00,
2013-03-02 15:14:00,49.5,43.6,29.06,SSE,158,0.0,0.0,80,-99.99,,---,-99.99,VWS V14.00,2013-03-02 23:14:00,
2013-03-02 15:19:00,49.3,43.4,29.06,SSE,158,0.0,0.0,80,-99.99,,---,-99.99,VWS V14.00,2013-03-02 23:19:00,
2013-03-02 15:25:00,49.1,43.5,29.06,SSE,158,0.0,0.0,81,-99.99,,---,-99.99,VWS V14.00,2013-03-02 23:25:00,
2013-03-02 15:29:00,48.9,43.7,29.06,SSE,158,0.0,0.0,82,-99.99,,---,-99.99,VWS V14.00,2013-03-02 23:29:00,
2013-03-02 15:34:00,48.7,43.8,29.06,SSE,158,0.0,0.0,83,-99.99,,---,-99.99,VWS V14.00,2013-03-02 23:34:00,
2013-03-02 15:39:00,48.7,44.1,29.06,SSE,158,0.0,0.0,84,-99.99,,---,-99.99,VWS V14.00,2013-03-02 23:39:00,
2013-03-02 15:44:00,48.6,44.0,29.06,SSE,158,0.0,0.0,84,-99.99,,---,-99.99,VWS V14.00,2013-03-02 23:44:00,
2013-03-02 15:49:00,48.6,44.3,29.06,SSE,158,0.0,0.0,85,-99.99,,---,-99.99,VWS V14.00,2013-03-02 23:49:00,
2013-03-02 15:54:00,48.6,44.3,29.06,SSE,158,0.0,0.0,85,-99.99,,---,-99.99,VWS V14.00,2013-03-02 23:54:00,
2013-03-02 15:59:00,48.6,44.6,29.06,SSE,158,0.0,0.0,86,-99.99,,---,-99.99,VWS V14.00,2013-03-02 23:59:00,
2013-03-02 16:04:00,48.6,44.9,29.06,SSE,158,0.0,0.9,87,-99.99,,---,-99.99,VWS V14.00,2013-03-03 00:04:00,
2013-03-02 16:09:00,48.6,45.2,29.06,SSE,158,0.0,0.0,88,-99.99,,---,-99.99,VWS V14.00,2013-03-03 00:09:00,
2013-03-02 16:14:00,48.6,45.5,29.06,SSE,158,0.0,0.0,89,-99.99,,---,-99.99,VWS V14.00,2013-03-03 00:14:00,
2013-03-02 16:19:00,48.7,45.7,29.06,SSE,158,0.0,0.0,89,-99.99,,---,-99.99,VWS V14.00,2013-03-03 00:19:00,
2013-03-02 16:24:00,48.7,45.7,29.06,SSE,158,0.0,0.0,89,-99.99,,---,-99.99,VWS V14.00,2013-03-03 00:24:00,
2013-03-02 16:29:00,48.7,45.9,29.06,SSE,158,0.0,0.0,90,-99.99,,---,-99.99,VWS V14.00,2013-03-03 00:29:00,
2013-03-02 16:34:00,48.9,46.1,29.06,SSE,158,0.0,0.0,90,-99.99,,---,-99.99,VWS V14.00,2013-03-03 00:34:00,
2013-03-02 16:39:00,48.9,46.1,29.06,SSE,158,0.0,0.0,90,-99.99,,---,-99.99,VWS V14.00,2013-03-03 00:39:00,
2013-03-02 16:44:00,48.9,46.1,29.03,SSE,158,0.0,0.0,90,-99.99,,---,-99.99,VWS V14.00,2013-03-03 00:44:00,
2013-03-02 16:49:00,48.9,46.1,29.03,SSE,158,0.0,0.0,90,-99.99,,---,-99.99,VWS V14.00,2013-03-03 00:49:00,
2013-03-02 16:54:00,48.9,45.8,29.03,SSE,158,0.0,0.0,89,-99.99,,---,-99.99,VWS V14.00,2013-03-03 00:54:00,
2013-03-02 16:59:00,48.9,45.8,29.03,SSE,158,0.0,0.0,89,-99.99,,---,-99.99,VWS V14.00,2013-03-03 00:59:00,
2013-03-02 17:04:00,48.7,45.7,29.03,SSE,158,0.0,0.0,89,-99.99,,---,-99.99,VWS V14.00,2013-03-03 01:04:00,
2013-03-02 17:09:00,48.7,45.7,29.03,SSE,158,0.0,0.0,89,-99.99,,---,-99.99,VWS V14.00,2013-03-03 01:09:00,
2013-03-02 17:14:00,48.7,45.9,29.03,SSE,158,0.0,0.0,90,-99.99,,---,-99.99,VWS V14.00,2013-03-03 01:14:00,
2013-03-02 17:19:00,48.6,45.8,29.03,SSE,158,0.0,0.0,90,-99.99,,---,-99.99,VWS V14.00,2013-03-03 01:19:00,
2013-03-02 17:24:00,48.6,45.8,29.03,SSE,158,0.0,0.0,90,-99.99,,---,-99.99,VWS V14.00,2013-03-03 01:24:00,
2013-03-02 17:29:00,48.4,45.6,29.03,SSE,158,0.0,0.0,90,-99.99,,---,-99.99,VWS V14.00,2013-03-03 01:29:00,
2013-03-02 17:34:00,48.4,45.6,29.03,SSE,158,1.1,1.1,90,-99.99,,---,-99.99,VWS V14.00,2013-03-03 01:34:00,
2013-03-02 17:39:00,48.2,45.4,29.03,SSE,158,1.1,1.3,90,-99.99,,---,-99.99,VWS V14.00,2013-03-03 01:39:00,
2013-03-02 17:44:00,48.2,45.4,29.03,SSE,158,0.0,0.0,90,-99.99,,---,-99.99,VWS V14.00,2013-03-03 01:44:00,
2013-03-02 17:49:00,48.0,45.5,29.03,SSE,158,0.0,0.0,91,-99.99,,---,-99.99,VWS V14.00,2013-03-03 01:49:00,
2013-03-02 17:54:00,48.0,45.5,29.03,SSE,158,0.0,0.0,91,-99.99,,---,-99.99,VWS V14.00,2013-03-03 01:54:00,
2013-03-02 17:59:00,48.0,45.5,29.03,SSE,158,0.0,0.0,91,-99.99,,---,-99.99,VWS V14.00,2013-03-03 01:59:00,
2013-03-02 18:04:00,48.0,45.5,29.03,SSE,158,0.0,0.0,91,-99.99,,---,-99.99,VWS V14.00,2013-03-03 02:04:00,
2013-03-02 18:09:00,47.8,45.3,29.03,SSE,158,0.9,0.9,91,-99.99,,---,-99.99,VWS V14.00,2013-03-03 02:09:00,
2013-03-02 18:14:00,47.8,45.6,29.03,SSW,202,1.3,1.3,92,-99.99,,---,-99.99,VWS V14.00,2013-03-03 02:14:00,
2013-03-02 18:19:00,47.7,45.5,29.03,SSW,202,1.3,1.3,92,-99.99,,---,-99.99,VWS V14.00,2013-03-03 02:19:00,
2013-03-02 18:24:00,47.7,45.5,29.03,SSW,202,0.9,0.9,92,-99.99,,---,-99.99,VWS V14.00,2013-03-03 02:24:00,
2013-03-02 18:29:00,47.5,45.6,29.03,SSW,202,0.0,0.0,93,-99.99,,---,-99.99,VWS V14.00,2013-03-03 02:29:00,
2013-03-02 18:34:00,47.5,45.6,29.03,SSW,202,0.0,0.0,93,-99.99,,---,-99.99,VWS V14.00,2013-03-03 02:34:00,
2013-03-02 18:39:00,47.3,45.7,29.03,SSW,202,0.9,0.9,94,-99.99,,---,-99.99,VWS V14.00,2013-03-03 02:39:00,
2013-03-02 18:44:00,47.3,45.7,29.03,SSW,202,0.0,1.3,94,-99.99,,---,-99.99,VWS V14.00,2013-03-03 02:44:00,
2013-03-02 18:49:00,47.3,45.7,29.06,SSW,202,1.3,1.3,94,-99.99,,---,-99.99,VWS V14.00,2013-03-03 02:49:00,
2013-03-02 18:54:00,47.3,45.9,29.06,SSW,202,0.0,0.0,95,-99.99,,---,-99.99,VWS V14.00,2013-03-03 02:54:00,
2013-03-02 18:59:00,47.3,45.9,29.03,SSW,202,1.1,1.3,95,-99.99,,---,-99.99,VWS V14.00,2013-03-03 02:59:00,
2013-03-02 19:04:00,47.3,45.9,29.03,SSW,202,1.3,1.3,95,-99.99,,---,-99.99,VWS V14.00,2013-03-03 03:04:00,
2013-03-02 19:09:00,47.3,45.9,29.03,ENE,68,0.9,1.6,95,-99.99,,---,-99.99,VWS V14.00,2013-03-03 03:09:00,
2013-03-02 19:14:00,46.4,44.8,29.06,NNE,22,4.0,4.9,94,-99.99,,---,-99.99,VWS V14.00,2013-03-03 03:14:00,
2013-03-02 19:19:00,45.3,42.6,29.06,NW,315,4.7,4.7,90,-99.99,,---,-99.99,VWS V14.00,2013-03-03 03:19:00,
2013-03-02 19:24:00,44.6,41.0,29.06,NNE,22,4.0,4.0,87,-99.99,,---,-99.99,VWS V14.00,2013-03-03 03:24:00,
2013-03-02 19:29:00,43.9,40.0,29.06,SW,225,3.4,3.4,86,-99.99,,---,-99.99,VWS V14.00,2013-03-03 03:29:00,
2013-03-02 19:34:00,43.5,39.9,29.06,WNW,292,2.7,4.9,87,-99.99,,---,-99.99,VWS V14.00,2013-03-03 03:34:00,
2013-03-02 19:39:00,43.2,39.8,29.06,NNE,22,1.1,2.5,88,-99.99,,---,-99.99,VWS V14.00,2013-03-03 03:39:00,
2013-03-02 19:44:00,43.0,40.0,29.06,NE,45,4.7,4.7,89,-99.99,,---,-99.99,VWS V14.00,2013-03-03 03:44:00,
2013-03-02 19:49:00,42.8,39.8,29.06,NE,45,0.0,0.0,89,-99.99,,---,-99.99,VWS V14.00,2013-03-03 03:49:00,
2013-03-02 19:54:00,42.4,40.0,29.06,East,90,0.9,3.4,91,-99.99,,---,-99.99,VWS V14.00,2013-03-03 03:54:00,
2013-03-02 19:59:00,42.4,40.0,29.06,East,90,0.9,1.1,91,-99.99,,---,-99.99,VWS V14.00,2013-03-03 03:59:00,
2013-03-02 20:04:00,42.1,39.7,29.06,SW,225,7.4,7.4,91,-99.99,,---,-99.99,VWS V14.00,2013-03-03 04:04:00,
2013-03-02 20:09:00,41.9,39.5,29.06,WNW,292,2.9,3.1,91,-99.99,,---,-99.99,VWS V14.00,2013-03-03 04:09:00,
2013-03-02 20:14:00,41.7,39.3,29.09,WNW,292,2.7,2.7,91,-99.99,,---,-99.99,VWS V14.00,2013-03-03 04:14:00,
2013-03-02 20:19:00,41.5,39.1,29.09,ENE,68,1.3,2.7,91,-99.99,,---,-99.99,VWS V14.00,2013-03-03 04:19:00,
2013-03-02 20:24:00,41.4,39.2,29.09,ENE,68,2.0,2.5,92,-99.99,,---,-99.99,VWS V14.00,2013-03-03 04:24:00,
2013-03-02 20:29:00,41.4,39.2,29.09,WSW,248,1.3,1.6,92,-99.99,,---,-99.99,VWS V14.00,2013-03-03 04:29:00,
2013-03-02 20:34:00,41.2,39.3,29.09,WNW,292,2.0,3.8,93,-99.99,,---,-99.99,VWS V14.00,2013-03-03 04:34:00,
2013-03-02 20:39:00,41.2,39.3,29.09,West,270,1.3,1.3,93,-99.99,,---,-99.99,VWS V14.00,2013-03-03 04:39:00,
2013-03-02 20:44:00,41.2,39.3,29.09,ENE,68,0.0,1.6,93,-99.99,,---,-99.99,VWS V14.00,2013-03-03 04:44:00,
2013-03-02 20:49:00,41.2,39.3,29.09,SE,135,1.3,2.5,93,-99.99,,---,-99.99,VWS V14.00,2013-03-03 04:49:00,
2013-03-02 20:54:00,41.0,39.1,29.09,NE,45,0.0,0.0,93,-99.99,,---,-99.99,VWS V14.00,2013-03-03 04:54:00,
2013-03-02 20:59:00,41.0,39.1,29.09,WNW,292,3.1,3.1,93,-99.99,,---,-99.99,VWS V14.00,2013-03-03 04:59:00,
2013-03-02 21:00:00,41.0,39.1,29.09,WNW,292,2.9,2.9,93,-99.99,,---,-99.99,VWS V14.00,2013-03-03 05:00:00,
2013-03-02 21:05:00,41.0,39.1,29.09,WNW,292,0.0,0.0,93,-99.99,,---,-99.99,VWS V14.00,2013-03-03 05:05:00,
2013-03-02 21:10:00,41.0,39.1,29.09,WNW,292,1.6,2.2,93,-99.99,,---,-99.99,VWS V14.00,2013-03-03 05:10:00,
2013-03-02 21:15:00,41.0,39.1,29.09,WSW,248,0.0,0.0,93,-99.99,,---,-99.99,VWS V14.00,2013-03-03 05:15:00,
2013-03-02 21:20:00,41.0,39.4,29.09,West,270,3.1,3.8,94,-99.99,,---,-99.99,VWS V14.00,2013-03-03 05:20:00,
2013-03-02 21:25:00,41.0,39.4,29.09,WNW,292,2.2,2.2,94,-99.99,,---,-99.99,VWS V14.00,2013-03-03 05:25:00,
2013-03-02 21:30:00,41.0,39.4,29.09,WNW,292,3.1,3.1,94,-99.99,,---,-99.99,VWS V14.00,2013-03-03 05:30:00,
2013-03-02 21:35:00,40.8,39.2,29.09,WSW,248,2.7,3.1,94,-99.99,,---,-99.99,VWS V14.00,2013-03-03 05:35:00,
2013-03-02 21:40:00,40.8,39.2,29.09,WSW,248,0.0,0.0,94,-99.99,,---,-99.99,VWS V14.00,2013-03-03 05:40:00,
2013-03-02 21:45:00,40.8,39.2,29.09,WNW,292,2.0,2.0,94,-99.99,,---,-99.99,VWS V14.00,2013-03-03 05:45:00,
2013-03-02 21:50:00,40.6,39.0,29.09,WNW,292,2.7,2.7,94,-99.99,,---,-99.99,VWS V14.00,2013-03-03 05:50:00,
2013-03-02 21:55:00,40.6,38.8,29.09,NW,315,0.0,2.7,93,-99.99,,---,-99.99,VWS V14.00,2013-03-03 05:55:00,
2013-03-02 22:00:00,40.6,38.8,29.09,WSW,248,2.0,2.0,93,-99.99,,---,-99.99,VWS V14.00,2013-03-03 06:00:00,
2013-03-02 22:05:00,40.6,38.8,29.09,West,270,1.6,1.6,93,-99.99,,---,-99.99,VWS V14.00,2013-03-03 06:05:00,
2013-03-02 22:10:00,40.5,38.6,29.09,WSW,248,0.0,0.0,93,-99.99,,---,-99.99,VWS V14.00,2013-03-03 06:10:00,
2013-03-02 22:15:00,40.5,38.6,29.09,NNE,22,1.6,1.6,93,-99.99,,---,-99.99,VWS V14.00,2013-03-03 06:15:00,
2013-03-02 22:20:00,40.5,38.6,29.09,WSW,248,3.1,3.1,93,-99.99,,---,-99.99,VWS V14.00,2013-03-03 06:20:00,
2013-03-02 22:25:00,40.5,38.6,29.09,WSW,248,0.0,0.0,93,-99.99,,---,-99.99,VWS V14.00,2013-03-03 06:25:00,
2013-03-02 22:30:00,40.5,38.3,29.09,WSW,248,0.0,0.0,92,-99.99,,---,-99.99,VWS V14.00,2013-03-03 06:30:00,
2013-03-02 22:35:00,40.3,38.2,29.09,SW,225,0.0,0.0,92,-99.99,,---,-99.99,VWS V14.00,2013-03-03 06:35:00,
2013-03-02 22:40:00,40.3,38.2,29.09,WNW,292,3.8,3.8,92,-99.99,,---,-99.99,VWS V14.00,2013-03-03 06:40:00,
2013-03-02 22:45:00,40.3,38.2,29.09,WSW,248,0.0,0.0,92,-99.99,,---,-99.99,VWS V14.00,2013-03-03 06:45:00,
2013-03-02 22:50:00,40.3,38.2,29.09,SSW,202,0.0,0.0,92,-99.99,,---,-99.99,VWS V14.00,2013-03-03 06:50:00,
2013-03-02 22:55:00,40.1,38.2,29.09,SSW,202,0.0,0.0,93,-99.99,,---,-99.99,VWS V14.00,2013-03-03 06:55:00,
2013-03-02 23:00:00,40.1,38.2,29.09,SSW,202,0.0,0.0,93,-99.99,,---,-99.99,VWS V14.00,2013-03-03 07:00:00,
2013-03-02 23:05:00,39.9,38.1,29.09,SSW,202,0.0,0.0,93,-99.99,,---,-99.99,VWS V14.00,2013-03-03 07:05:00,
2013-03-02 23:10:00,39.9,38.1,29.09,SSW,202,0.0,0.0,93,-99.99,,---,-99.99,VWS V14.00,2013-03-03 07:10:00,
2013-03-02 23:15:00,39.7,37.9,29.09,SSW,202,0.0,0.0,93,-99.99,,---,-99.99,VWS V14.00,2013-03-03 07:15:00,
2013-03-02 23:20:00,39.7,37.9,29.09,SSW,202,0.0,0.0,93,-99.99,,---,-99.99,VWS V14.00,2013-03-03 07:20:00,
2013-03-02 23:25:00,39.7,37.9,29.09,SSW,202,0.0,0.0,93,-99.99,,---,-99.99,VWS V14.00,2013-03-03 07:25:00,
2013-03-02 23:30:00,39.7,37.9,29.12,SSW,202,0.0,0.0,93,-99.99,,---,-99.99,VWS V14.00,2013-03-03 07:30:00,
2013-03-02 23:35:00,39.7,37.9,29.12,SSW,202,0.0,0.0,93,-99.99,,---,-99.99,VWS V14.00,2013-03-03 07:35:00,
2013-03-02 23:40:00,39.6,37.7,29.12,SSW,202,0.0,0.0,93,-99.99,,---,-99.99,VWS V14.00,2013-03-03 07:40:00,
2013-03-02 23:45:00,39.6,37.7,29.12,SSW,202,0.0,0.0,93,-99.99,,---,-99.99,VWS V14.00,2013-03-03 07:45:00,
2013-03-02 23:50:00,39.4,37.5,29.12,SSW,202,0.0,0.0,93,-99.99,,---,-99.99,VWS V14.00,2013-03-03 07:50:00,
2013-03-02 23:55:00,39.4,37.5,29.12,SSW,202,0.0,0.0,93,-99.99,,---,-99.99,VWS V14.00,2013-03-03 07:55:00,